Погода Алпинополисна неделю

Минас-Жерайс, Бразилия

18 - 24 июля
  • 18июля
    Сегодня
    +13°
    +26°
    Ясно и безоблачно
    ВремяПогодаТемператураВлажностьДавлениеВетер, м/сВероятность осадков
    00:00Ясно и безоблачно+15°C78 %689 мм1.8 м/с5 %
    03:00Ясно и безоблачно+15°C72 %689 мм2.1 м/с5 %
    06:00Ясно и безоблачно+14°C75 %689 мм2.4 м/с5 %
    09:00Ясно и безоблачно+19°C59 %692 мм1.8 м/с5 %
    12:00Ясно и безоблачно+23°C42 %692 мм1.9 м/с5 %
    15:00Ясно и безоблачно+26°C38 %691 мм1.6 м/с5 %
    18:00Ясно и безоблачно+21°C54 %690 мм1.7 м/с5 %
    21:00Ясно и безоблачно+18°C61 %690 мм2.2 м/с5 %
  • 19июля
    Пятница
    +12°
    +27°
    Ясно и безоблачно
    ВремяПогодаТемператураВлажностьДавлениеВетер, м/сВероятность осадков
    00:00Ясно и безоблачно+16°C58 %690 мм2.1 м/с5 %
    03:00Ясно и безоблачно+14°C66 %689 мм2.0 м/с5 %
    06:00Ясно и безоблачно+14°C73 %690 мм3.0 м/с5 %
    09:00Ясно и безоблачно+18°C64 %693 мм2.2 м/с5 %
    12:00Ясно и безоблачно+23°C46 %693 мм2.3 м/с5 %
    15:00Ясно и безоблачно+26°C38 %692 мм1.6 м/с5 %
    18:00Ясно и безоблачно+22°C57 %692 мм1.7 м/с5 %
    21:00Ясно и безоблачно+19°C62 %691 мм2.4 м/с5 %
  • 20июля
    Суббота
    +12°
    +27°
    Ясно и безоблачно
    ВремяПогодаТемператураВлажностьДавлениеВетер, м/сВероятность осадков
    00:00Ясно и безоблачно+16°C68 %691 мм2.2 м/с5 %
    03:00Ясно и безоблачно+15°C75 %690 мм2.5 м/с5 %
    06:00Ясно и безоблачно+13°C87 %690 мм2.6 м/с5 %
    09:00Ясно и безоблачно+18°C67 %692 мм2.2 м/с5 %
    12:00Ясно и безоблачно+24°C47 %692 мм2.0 м/с5 %
    15:00Ясно и безоблачно+26°C39 %691 мм1.9 м/с5 %
    18:00Ясно и безоблачно+22°C59 %690 мм1.7 м/с5 %
    21:00Ясно и безоблачно+18°C62 %690 мм2.3 м/с5 %
  • 21июля
    Воскресенье
    +13°
    +25°
    Ясно и безоблачно
    ВремяПогодаТемператураВлажностьДавлениеВетер, м/сВероятность осадков
    00:00Ясно и безоблачно+16°C73 %690 мм2.6 м/с5 %
    03:00Ясно и безоблачно+15°C78 %689 мм3.2 м/с5 %
    06:00Ясно и безоблачно+12°C88 %689 мм2.7 м/с5 %
    09:00Ясно и безоблачно+17°C68 %692 мм3.1 м/с5 %
    12:00Ясно и безоблачно+22°C51 %692 мм2.6 м/с5 %
    15:00Ясно и безоблачно+25°C41 %691 мм2.2 м/с5 %
    18:00Ясно и безоблачно+21°C63 %690 мм1.6 м/с5 %
    21:00Ясно и безоблачно+17°C71 %690 мм2.1 м/с5 %
  • 22июля
    Понедельник
    +14°
    +26°
    Небольшая облачность
    ВремяПогодаТемператураВлажностьДавлениеВетер, м/сВероятность осадков
    00:00Ясно и безоблачно+16°C74 %690 мм2.4 м/с5 %
    03:00Ясно и безоблачно+14°C79 %689 мм2.2 м/с5 %
    06:00Ясно и безоблачно+14°C83 %690 мм2.3 м/с5 %
    09:00Ясно и безоблачно+18°C65 %692 мм2.6 м/с5 %
    12:00Ясно и безоблачно+23°C49 %693 мм2.2 м/с5 %
    15:00Небольшая облачность+26°C41 %691 мм1.7 м/с5 %
    18:00Ясно и безоблачно+22°C61 %691 мм1.8 м/с5 %
    21:00Ясно и безоблачно+18°C63 %691 мм2.6 м/с5 %
Мы используем cookies
Соглашаюсь